Airfield :
LOGIN :

Register | Disclaimer

   EN    FR    IT 

 










Legend :    VFR   Marginal VFR   IFR   Intensive IFR   Very Intensive IFR
Visi :
Ceiling :
>= 8 km
>= 3000ft
5 to 8 km
1000 to 3000 ft
1500m to 5 km
500 to 1000 ft
800 to 1500m
200 to 500 ft
< 800m
< 200 ft
Symbols :   Thunderstorms  Fog  Heavy snow  Heavy precipitations  Wind > 20 kt
SIGMETs :     Misc.  Thunderstorms  Icing  Turbulence  Mountain Waves  Volcanic Ashes






- Airport Elevation : 2776 ft
- IATA code : VLL


LEVD - Valladolid

CURRENT METAR :
  • 080230Z AUTO 26018G29KT 9000 -RA OVC011 04/03 Q1011

EXPIRED METARs :
  • 080200Z AUTO 25012G22KT 9999 -RA SCT010 BKN016 OVC026 04/03 Q1010
  • 080130Z AUTO 25014KT 9999 SCT030 BKN037 OVC049 04/03 Q1010
  • 080100Z AUTO 26016KT CAVOK 04/02 Q1011
  • 080030Z AUTO 26017KT 9999 FEW014 04/02 Q1011
  • 080000Z AUTO 26017KT 9999 FEW038 SCT044 04/02 Q1011

TAF TAF LEVD
Valid from the 08 at 03:00 until the 09 at 03:00 UTC


080200Z 0803/0903 27016KT 9999 SCT015 BKN022 TX07/0814Z TN01/0806Z
TEMPO 0803/0804 28020G32KT 3000 RADZ BR BKN008
PROB40
TEMPO 0803/0811 27017G28KT
PROB40
TEMPO 0811/0818 28020G35KT 3000 RASN BKN005
BECMG 0822/0824 BKN005



MET'MAP, your aeronautical weather chart ! - Copyright ORBIFLY December 2007 - Disclaimer

ORBIFLY MET'MAP TEAM :

Programming & Development : Alexandra Zaïnal
Concept & original design : Baudouin d'Aumeries
Assistance for programming : Marc-Olivier Méhu
Technical & hardware support : Manuel Goepfert

Contact : metmap@orbifly.com




SOURCES & CREDITS :

   NOAA